sensor_id;sensor_type;location;lat;lon;timestamp;P1;durP1;ratioP1;P2;durP2;ratioP2
71046;SDS011;58703;48.978;8.982;2024-03-07T00:00:14;58.40;;;22.57;;
71046;SDS011;58703;48.978;8.982;2024-03-07T00:02:42;54.90;;;20.77;;
71046;SDS011;58703;48.978;8.982;2024-03-07T00:05:09;43.25;;;21.08;;
71046;SDS011;58703;48.978;8.982;2024-03-07T00:07:36;41.13;;;19.95;;
71046;SDS011;58703;48.978;8.982;2024-03-07T00:10:02;46.42;;;21.98;;
71046;SDS011;58703;48.978;8.982;2024-03-07T00:12:29;36.43;;;18.47;;
71046;SDS011;58703;48.978;8.982;2024-03-07T00:14:55;40.58;;;19.33;;
71046;SDS011;58703;48.978;8.982;2024-03-07T00:17:21;42.97;;;20.33;;
71046;SDS011;58703;48.978;8.982;2024-03-07T00:19:48;46.30;;;19.13;;
71046;SDS011;58703;48.978;8.982;2024-03-07T00:22:14;44.08;;;20.10;;
71046;SDS011;58703;48.978;8.982;2024-03-07T00:24:40;44.50;;;19.60;;
71046;SDS011;58703;48.978;8.982;2024-03-07T00:27:06;44.38;;;19.92;;
71046;SDS011;58703;48.978;8.982;2024-03-07T00:29:32;48.38;;;22.20;;
71046;SDS011;58703;48.978;8.982;2024-03-07T00:32:01;46.25;;;20.92;;
71046;SDS011;58703;48.978;8.982;2024-03-07T00:34:26;44.25;;;19.23;;
71046;SDS011;58703;48.978;8.982;2024-03-07T00:36:52;43.57;;;20.17;;
71046;SDS011;58703;48.978;8.982;2024-03-07T00:39:18;44.75;;;20.05;;
71046;SDS011;58703;48.978;8.982;2024-03-07T00:41:45;41.08;;;19.50;;
71046;SDS011;58703;48.978;8.982;2024-03-07T00:44:11;47.67;;;20.77;;
71046;SDS011;58703;48.978;8.982;2024-03-07T00:46:36;46.03;;;20.10;;
71046;SDS011;58703;48.978;8.982;2024-03-07T00:49:04;44.90;;;20.48;;
71046;SDS011;58703;48.978;8.982;2024-03-07T00:51:30;45.97;;;20.55;;
71046;SDS011;58703;48.978;8.982;2024-03-07T00:53:56;43.03;;;19.73;;
71046;SDS011;58703;48.978;8.982;2024-03-07T00:56:23;46.58;;;21.00;;
71046;SDS011;58703;48.978;8.982;2024-03-07T00:58:48;48.25;;;22.70;;
71046;SDS011;58703;48.978;8.982;2024-03-07T01:01:14;48.60;;;22.67;;
71046;SDS011;58703;48.978;8.982;2024-03-07T01:03:44;48.05;;;22.38;;
71046;SDS011;58703;48.978;8.982;2024-03-07T01:06:10;46.40;;;22.35;;
71046;SDS011;58703;48.978;8.982;2024-03-07T01:08:36;48.95;;;23.33;;
71046;SDS011;58703;48.978;8.982;2024-03-07T01:11:03;51.15;;;24.10;;
71046;SDS011;58703;48.978;8.982;2024-03-07T01:13:37;53.75;;;25.83;;
71046;SDS011;58703;48.978;8.982;2024-03-07T01:16:03;53.47;;;24.35;;
71046;SDS011;58703;48.978;8.982;2024-03-07T01:18:29;52.17;;;23.27;;
71046;SDS011;58703;48.978;8.982;2024-03-07T01:20:54;47.07;;;23.20;;
71046;SDS011;58703;48.978;8.982;2024-03-07T01:23:20;52.23;;;24.93;;
71046;SDS011;58703;48.978;8.982;2024-03-07T01:25:46;54.67;;;25.75;;
71046;SDS011;58703;48.978;8.982;2024-03-07T01:28:12;54.17;;;25.43;;
71046;SDS011;58703;48.978;8.982;2024-03-07T01:30:39;57.42;;;24.27;;
71046;SDS011;58703;48.978;8.982;2024-03-07T01:33:05;49.92;;;23.92;;
71046;SDS011;58703;48.978;8.982;2024-03-07T01:35:30;50.40;;;24.07;;
71046;SDS011;58703;48.978;8.982;2024-03-07T01:37:56;51.93;;;24.50;;
71046;SDS011;58703;48.978;8.982;2024-03-07T01:40:21;46.45;;;21.75;;
71046;SDS011;58703;48.978;8.982;2024-03-07T01:42:48;50.63;;;25.13;;
71046;SDS011;58703;48.978;8.982;2024-03-07T01:45:15;42.03;;;21.23;;
71046;SDS011;58703;48.978;8.982;2024-03-07T01:47:43;45.17;;;22.92;;
71046;SDS011;58703;48.978;8.982;2024-03-07T01:50:09;54.08;;;23.08;;
71046;SDS011;58703;48.978;8.982;2024-03-07T01:52:35;39.40;;;21.83;;
71046;SDS011;58703;48.978;8.982;2024-03-07T01:55:05;41.03;;;21.95;;
71046;SDS011;58703;48.978;8.982;2024-03-07T01:57:31;41.60;;;21.40;;
71046;SDS011;58703;48.978;8.982;2024-03-07T01:59:57;42.97;;;20.02;;
71046;SDS011;58703;48.978;8.982;2024-03-07T02:05:19;43.53;;;21.08;;
71046;SDS011;58703;48.978;8.982;2024-03-07T02:07:46;47.50;;;22.00;;
71046;SDS011;58703;48.978;8.982;2024-03-07T02:10:12;43.65;;;20.52;;
71046;SDS011;58703;48.978;8.982;2024-03-07T02:12:38;53.83;;;23.58;;
71046;SDS011;58703;48.978;8.982;2024-03-07T02:15:04;52.60;;;22.00;;
71046;SDS011;58703;48.978;8.982;2024-03-07T02:17:29;52.15;;;25.02;;
71046;SDS011;58703;48.978;8.982;2024-03-07T02:19:55;51.90;;;22.73;;
71046;SDS011;58703;48.978;8.982;2024-03-07T02:22:20;52.42;;;21.85;;
71046;SDS011;58703;48.978;8.982;2024-03-07T02:24:46;51.67;;;22.20;;
71046;SDS011;58703;48.978;8.982;2024-03-07T02:27:12;48.47;;;22.27;;
71046;SDS011;58703;48.978;8.982;2024-03-07T02:29:40;40.67;;;20.77;;
71046;SDS011;58703;48.978;8.982;2024-03-07T02:32:06;42.63;;;20.35;;
71046;SDS011;58703;48.978;8.982;2024-03-07T02:34:32;40.90;;;19.92;;
71046;SDS011;58703;48.978;8.982;2024-03-07T02:36:58;42.17;;;19.80;;
71046;SDS011;58703;48.978;8.982;2024-03-07T02:39:23;37.08;;;18.00;;
71046;SDS011;58703;48.978;8.982;2024-03-07T02:41:50;40.80;;;21.02;;
71046;SDS011;58703;48.978;8.982;2024-03-07T02:44:16;43.03;;;19.87;;
71046;SDS011;58703;48.978;8.982;2024-03-07T02:46:42;44.47;;;21.05;;
71046;SDS011;58703;48.978;8.982;2024-03-07T02:49:08;48.55;;;22.02;;
71046;SDS011;58703;48.978;8.982;2024-03-07T02:51:34;49.55;;;22.00;;
71046;SDS011;58703;48.978;8.982;2024-03-07T02:54:00;48.42;;;21.77;;
71046;SDS011;58703;48.978;8.982;2024-03-07T02:56:26;41.85;;;19.52;;
71046;SDS011;58703;48.978;8.982;2024-03-07T02:58:51;37.67;;;19.40;;
71046;SDS011;58703;48.978;8.982;2024-03-07T03:01:17;42.47;;;19.97;;
71046;SDS011;58703;48.978;8.982;2024-03-07T03:03:43;46.67;;;21.87;;
71046;SDS011;58703;48.978;8.982;2024-03-07T03:06:09;41.30;;;19.95;;
71046;SDS011;58703;48.978;8.982;2024-03-07T03:08:35;44.88;;;20.10;;
71046;SDS011;58703;48.978;8.982;2024-03-07T03:11:01;45.80;;;20.42;;
71046;SDS011;58703;48.978;8.982;2024-03-07T03:13:26;42.80;;;19.17;;
71046;SDS011;58703;48.978;8.982;2024-03-07T03:15:55;38.85;;;19.08;;
71046;SDS011;58703;48.978;8.982;2024-03-07T03:18:22;44.05;;;20.50;;
71046;SDS011;58703;48.978;8.982;2024-03-07T03:20:49;35.15;;;17.95;;
71046;SDS011;58703;48.978;8.982;2024-03-07T03:23:15;39.43;;;19.13;;
71046;SDS011;58703;48.978;8.982;2024-03-07T03:25:41;39.42;;;19.27;;
71046;SDS011;58703;48.978;8.982;2024-03-07T03:28:08;43.40;;;18.63;;
71046;SDS011;58703;48.978;8.982;2024-03-07T03:33:12;39.45;;;18.10;;
71046;SDS011;58703;48.978;8.982;2024-03-07T03:35:37;41.10;;;20.33;;
71046;SDS011;58703;48.978;8.982;2024-03-07T03:38:04;43.03;;;19.92;;
71046;SDS011;58703;48.978;8.982;2024-03-07T03:40:29;44.77;;;20.17;;
71046;SDS011;58703;48.978;8.982;2024-03-07T03:42:55;44.50;;;19.08;;
71046;SDS011;58703;48.978;8.982;2024-03-07T03:45:21;44.92;;;20.45;;
71046;SDS011;58703;48.978;8.982;2024-03-07T03:47:46;41.10;;;20.27;;
71046;SDS011;58703;48.978;8.982;2024-03-07T03:50:13;39.97;;;18.38;;
71046;SDS011;58703;48.978;8.982;2024-03-07T03:52:39;38.60;;;18.83;;
71046;SDS011;58703;48.978;8.982;2024-03-07T03:55:06;37.30;;;18.27;;
71046;SDS011;58703;48.978;8.982;2024-03-07T03:57:32;41.03;;;18.65;;
71046;SDS011;58703;48.978;8.982;2024-03-07T03:59:58;41.17;;;20.13;;
71046;SDS011;58703;48.978;8.982;2024-03-07T04:02:25;42.65;;;20.67;;
71046;SDS011;58703;48.978;8.982;2024-03-07T04:04:51;47.53;;;19.92;;
71046;SDS011;58703;48.978;8.982;2024-03-07T04:07:18;45.28;;;20.60;;
71046;SDS011;58703;48.978;8.982;2024-03-07T04:09:47;45.22;;;21.50;;
71046;SDS011;58703;48.978;8.982;2024-03-07T04:12:13;45.58;;;21.50;;
71046;SDS011;58703;48.978;8.982;2024-03-07T04:14:39;47.43;;;21.10;;
71046;SDS011;58703;48.978;8.982;2024-03-07T04:17:06;48.97;;;21.33;;
71046;SDS011;58703;48.978;8.982;2024-03-07T04:19:36;44.85;;;21.73;;
71046;SDS011;58703;48.978;8.982;2024-03-07T04:22:03;45.80;;;21.63;;
71046;SDS011;58703;48.978;8.982;2024-03-07T04:24:30;43.63;;;21.00;;
71046;SDS011;58703;48.978;8.982;2024-03-07T04:27:01;42.30;;;20.17;;
71046;SDS011;58703;48.978;8.982;2024-03-07T04:29:35;44.90;;;20.55;;
71046;SDS011;58703;48.978;8.982;2024-03-07T04:32:01;43.72;;;19.92;;
71046;SDS011;58703;48.978;8.982;2024-03-07T04:34:27;48.15;;;21.60;;
71046;SDS011;58703;48.978;8.982;2024-03-07T04:36:59;45.55;;;20.50;;
71046;SDS011;58703;48.978;8.982;2024-03-07T04:39:29;39.55;;;21.27;;
71046;SDS011;58703;48.978;8.982;2024-03-07T04:42:00;41.35;;;19.10;;
71046;SDS011;58703;48.978;8.982;2024-03-07T04:44:29;44.42;;;19.83;;
71046;SDS011;58703;48.978;8.982;2024-03-07T04:46:56;42.15;;;20.25;;
71046;SDS011;58703;48.978;8.982;2024-03-07T04:49:23;45.20;;;20.92;;
71046;SDS011;58703;48.978;8.982;2024-03-07T04:51:50;43.45;;;21.75;;
71046;SDS011;58703;48.978;8.982;2024-03-07T04:54:16;49.72;;;22.05;;
71046;SDS011;58703;48.978;8.982;2024-03-07T04:56:42;43.03;;;20.75;;
71046;SDS011;58703;48.978;8.982;2024-03-07T04:59:08;46.40;;;19.52;;
71046;SDS011;58703;48.978;8.982;2024-03-07T05:01:35;45.00;;;19.95;;
71046;SDS011;58703;48.978;8.982;2024-03-07T05:04:00;40.17;;;19.30;;
71046;SDS011;58703;48.978;8.982;2024-03-07T05:06:28;42.03;;;18.98;;
71046;SDS011;58703;48.978;8.982;2024-03-07T05:08:54;45.83;;;21.02;;
71046;SDS011;58703;48.978;8.982;2024-03-07T05:11:19;49.47;;;22.67;;
71046;SDS011;58703;48.978;8.982;2024-03-07T05:13:46;46.83;;;22.35;;
71046;SDS011;58703;48.978;8.982;2024-03-07T05:16:13;51.47;;;22.35;;
71046;SDS011;58703;48.978;8.982;2024-03-07T05:18:39;49.17;;;21.23;;
71046;SDS011;58703;48.978;8.982;2024-03-07T05:21:06;49.03;;;21.77;;
71046;SDS011;58703;48.978;8.982;2024-03-07T05:23:51;45.63;;;21.33;;
71046;SDS011;58703;48.978;8.982;2024-03-07T05:26:17;43.87;;;20.50;;
71046;SDS011;58703;48.978;8.982;2024-03-07T05:28:42;44.80;;;21.23;;
71046;SDS011;58703;48.978;8.982;2024-03-07T05:31:08;39.77;;;18.90;;
71046;SDS011;58703;48.978;8.982;2024-03-07T05:33:38;48.00;;;20.17;;
71046;SDS011;58703;48.978;8.982;2024-03-07T05:36:04;35.20;;;16.77;;
71046;SDS011;58703;48.978;8.982;2024-03-07T05:38:48;36.33;;;19.05;;
71046;SDS011;58703;48.978;8.982;2024-03-07T05:41:14;40.83;;;19.47;;
71046;SDS011;58703;48.978;8.982;2024-03-07T05:43:40;44.75;;;20.17;;
71046;SDS011;58703;48.978;8.982;2024-03-07T05:46:05;39.17;;;18.43;;
71046;SDS011;58703;48.978;8.982;2024-03-07T05:48:36;37.45;;;18.65;;
71046;SDS011;58703;48.978;8.982;2024-03-07T05:51:02;37.92;;;18.15;;
71046;SDS011;58703;48.978;8.982;2024-03-07T05:53:28;35.90;;;17.33;;
71046;SDS011;58703;48.978;8.982;2024-03-07T05:55:53;35.35;;;17.50;;
71046;SDS011;58703;48.978;8.982;2024-03-07T05:58:19;35.50;;;18.17;;
71046;SDS011;58703;48.978;8.982;2024-03-07T06:00:48;47.33;;;21.77;;
71046;SDS011;58703;48.978;8.982;2024-03-07T06:03:17;38.63;;;18.17;;
71046;SDS011;58703;48.978;8.982;2024-03-07T06:05:46;42.50;;;20.88;;
71046;SDS011;58703;48.978;8.982;2024-03-07T06:08:15;41.83;;;20.63;;
71046;SDS011;58703;48.978;8.982;2024-03-07T06:10:42;40.30;;;19.98;;
71046;SDS011;58703;48.978;8.982;2024-03-07T06:13:09;38.58;;;18.75;;
71046;SDS011;58703;48.978;8.982;2024-03-07T06:15:37;38.80;;;19.45;;
71046;SDS011;58703;48.978;8.982;2024-03-07T06:18:05;35.17;;;17.38;;
71046;SDS011;58703;48.978;8.982;2024-03-07T06:20:33;37.13;;;17.90;;
71046;SDS011;58703;48.978;8.982;2024-03-07T06:23:00;38.28;;;17.45;;
71046;SDS011;58703;48.978;8.982;2024-03-07T06:25:33;37.67;;;18.27;;
71046;SDS011;58703;48.978;8.982;2024-03-07T06:28:04;30.88;;;17.50;;
71046;SDS011;58703;48.978;8.982;2024-03-07T06:30:40;31.70;;;15.82;;
71046;SDS011;58703;48.978;8.982;2024-03-07T06:33:10;31.80;;;17.03;;
71046;SDS011;58703;48.978;8.982;2024-03-07T06:35:37;33.85;;;16.92;;
71046;SDS011;58703;48.978;8.982;2024-03-07T06:38:04;42.50;;;18.95;;
71046;SDS011;58703;48.978;8.982;2024-03-07T06:40:31;38.97;;;19.60;;
71046;SDS011;58703;48.978;8.982;2024-03-07T06:43:00;45.53;;;20.70;;
71046;SDS011;58703;48.978;8.982;2024-03-07T06:45:29;40.57;;;19.10;;
71046;SDS011;58703;48.978;8.982;2024-03-07T06:47:55;44.35;;;21.42;;
71046;SDS011;58703;48.978;8.982;2024-03-07T06:50:21;43.63;;;20.33;;
71046;SDS011;58703;48.978;8.982;2024-03-07T06:52:47;42.75;;;19.75;;
71046;SDS011;58703;48.978;8.982;2024-03-07T06:55:14;32.88;;;17.33;;
71046;SDS011;58703;48.978;8.982;2024-03-07T06:57:42;39.38;;;19.67;;
71046;SDS011;58703;48.978;8.982;2024-03-07T07:00:08;43.83;;;21.52;;
71046;SDS011;58703;48.978;8.982;2024-03-07T07:02:39;42.15;;;19.73;;
71046;SDS011;58703;48.978;8.982;2024-03-07T07:05:06;44.95;;;19.90;;
71046;SDS011;58703;48.978;8.982;2024-03-07T07:07:39;46.42;;;21.35;;
71046;SDS011;58703;48.978;8.982;2024-03-07T07:10:07;44.88;;;22.65;;
71046;SDS011;58703;48.978;8.982;2024-03-07T07:12:36;45.35;;;21.48;;
71046;SDS011;58703;48.978;8.982;2024-03-07T07:15:02;42.08;;;20.17;;
71046;SDS011;58703;48.978;8.982;2024-03-07T07:17:29;50.60;;;21.80;;
71046;SDS011;58703;48.978;8.982;2024-03-07T07:19:58;42.88;;;21.42;;
71046;SDS011;58703;48.978;8.982;2024-03-07T07:22:25;43.17;;;21.67;;
71046;SDS011;58703;48.978;8.982;2024-03-07T07:24:51;42.63;;;21.27;;
71046;SDS011;58703;48.978;8.982;2024-03-07T07:27:16;42.17;;;20.90;;
71046;SDS011;58703;48.978;8.982;2024-03-07T07:29:43;43.47;;;20.30;;
71046;SDS011;58703;48.978;8.982;2024-03-07T07:32:09;40.35;;;20.23;;
71046;SDS011;58703;48.978;8.982;2024-03-07T07:34:37;36.07;;;18.47;;
71046;SDS011;58703;48.978;8.982;2024-03-07T07:37:05;34.53;;;18.55;;
71046;SDS011;58703;48.978;8.982;2024-03-07T07:39:30;31.90;;;17.05;;
71046;SDS011;58703;48.978;8.982;2024-03-07T07:41:56;35.67;;;17.50;;
71046;SDS011;58703;48.978;8.982;2024-03-07T07:44:22;25.33;;;13.10;;
71046;SDS011;58703;48.978;8.982;2024-03-07T07:46:48;19.23;;;11.07;;
71046;SDS011;58703;48.978;8.982;2024-03-07T07:49:14;22.33;;;11.43;;
71046;SDS011;58703;48.978;8.982;2024-03-07T07:51:41;18.57;;;10.30;;
71046;SDS011;58703;48.978;8.982;2024-03-07T07:54:07;21.92;;;10.95;;
71046;SDS011;58703;48.978;8.982;2024-03-07T07:56:34;29.55;;;14.38;;
71046;SDS011;58703;48.978;8.982;2024-03-07T07:59:01;26.00;;;13.48;;
71046;SDS011;58703;48.978;8.982;2024-03-07T08:01:28;19.40;;;11.50;;
71046;SDS011;58703;48.978;8.982;2024-03-07T08:03:54;31.23;;;15.50;;
71046;SDS011;58703;48.978;8.982;2024-03-07T08:06:19;30.93;;;16.40;;
71046;SDS011;58703;48.978;8.982;2024-03-07T08:08:45;26.27;;;14.05;;
71046;SDS011;58703;48.978;8.982;2024-03-07T08:11:11;30.37;;;15.30;;
71046;SDS011;58703;48.978;8.982;2024-03-07T08:13:39;26.95;;;15.38;;
71046;SDS011;58703;48.978;8.982;2024-03-07T08:16:05;30.10;;;16.83;;
71046;SDS011;58703;48.978;8.982;2024-03-07T08:18:31;26.80;;;14.82;;
71046;SDS011;58703;48.978;8.982;2024-03-07T08:20:57;32.87;;;16.67;;
71046;SDS011;58703;48.978;8.982;2024-03-07T08:23:23;28.17;;;14.50;;
71046;SDS011;58703;48.978;8.982;2024-03-07T08:25:51;23.08;;;13.15;;
71046;SDS011;58703;48.978;8.982;2024-03-07T08:28:17;25.63;;;13.63;;
71046;SDS011;58703;48.978;8.982;2024-03-07T08:30:43;26.70;;;14.93;;
71046;SDS011;58703;48.978;8.982;2024-03-07T08:33:09;21.83;;;13.15;;
71046;SDS011;58703;48.978;8.982;2024-03-07T08:35:35;19.88;;;10.73;;
71046;SDS011;58703;48.978;8.982;2024-03-07T08:38:01;17.80;;;10.67;;
71046;SDS011;58703;48.978;8.982;2024-03-07T08:40:27;14.73;;;9.30;;
71046;SDS011;58703;48.978;8.982;2024-03-07T08:42:59;25.60;;;14.57;;
71046;SDS011;58703;48.978;8.982;2024-03-07T08:45:26;22.52;;;12.88;;
71046;SDS011;58703;48.978;8.982;2024-03-07T08:47:53;19.08;;;10.35;;
71046;SDS011;58703;48.978;8.982;2024-03-07T08:50:20;23.70;;;13.60;;
71046;SDS011;58703;48.978;8.982;2024-03-07T08:52:47;28.50;;;13.50;;
71046;SDS011;58703;48.978;8.982;2024-03-07T08:55:14;21.60;;;11.63;;
71046;SDS011;58703;48.978;8.982;2024-03-07T08:57:48;27.73;;;15.45;;
71046;SDS011;58703;48.978;8.982;2024-03-07T09:00:15;25.85;;;14.63;;
71046;SDS011;58703;48.978;8.982;2024-03-07T09:02:49;23.75;;;14.30;;
71046;SDS011;58703;48.978;8.982;2024-03-07T09:05:19;25.95;;;13.57;;
71046;SDS011;58703;48.978;8.982;2024-03-07T09:07:47;19.27;;;10.85;;
71046;SDS011;58703;48.978;8.982;2024-03-07T09:10:14;21.13;;;11.38;;
71046;SDS011;58703;48.978;8.982;2024-03-07T09:12:40;28.23;;;14.32;;
71046;SDS011;58703;48.978;8.982;2024-03-07T09:15:07;23.70;;;12.10;;
71046;SDS011;58703;48.978;8.982;2024-03-07T09:17:37;13.52;;;9.02;;
71046;SDS011;58703;48.978;8.982;2024-03-07T09:20:04;21.97;;;13.03;;
71046;SDS011;58703;48.978;8.982;2024-03-07T09:22:33;24.00;;;11.48;;
71046;SDS011;58703;48.978;8.982;2024-03-07T09:24:59;25.23;;;14.35;;
71046;SDS011;58703;48.978;8.982;2024-03-07T09:27:25;28.02;;;13.77;;
71046;SDS011;58703;48.978;8.982;2024-03-07T09:29:52;27.85;;;13.95;;
71046;SDS011;58703;48.978;8.982;2024-03-07T09:32:18;21.08;;;11.77;;
71046;SDS011;58703;48.978;8.982;2024-03-07T09:34:47;20.80;;;12.10;;
71046;SDS011;58703;48.978;8.982;2024-03-07T09:37:13;22.27;;;12.73;;
71046;SDS011;58703;48.978;8.982;2024-03-07T09:39:38;13.67;;;8.27;;
71046;SDS011;58703;48.978;8.982;2024-03-07T09:42:05;18.98;;;10.70;;
71046;SDS011;58703;48.978;8.982;2024-03-07T09:44:38;14.25;;;9.43;;
71046;SDS011;58703;48.978;8.982;2024-03-07T09:47:07;16.73;;;9.52;;
71046;SDS011;58703;48.978;8.982;2024-03-07T09:49:33;20.83;;;13.13;;
71046;SDS011;58703;48.978;8.982;2024-03-07T09:52:03;20.73;;;11.60;;
71046;SDS011;58703;48.978;8.982;2024-03-07T09:54:34;19.08;;;11.93;;
71046;SDS011;58703;48.978;8.982;2024-03-07T09:57:00;26.30;;;13.52;;
71046;SDS011;58703;48.978;8.982;2024-03-07T09:59:28;27.45;;;14.82;;
71046;SDS011;58703;48.978;8.982;2024-03-07T10:01:57;23.50;;;13.23;;
71046;SDS011;58703;48.978;8.982;2024-03-07T10:04:36;24.00;;;14.02;;
71046;SDS011;58703;48.978;8.982;2024-03-07T10:07:07;22.23;;;13.00;;
71046;SDS011;58703;48.978;8.982;2024-03-07T10:09:37;23.83;;;13.00;;
71046;SDS011;58703;48.978;8.982;2024-03-07T10:12:05;25.77;;;14.68;;
71046;SDS011;58703;48.978;8.982;2024-03-07T10:14:47;22.43;;;13.13;;
71046;SDS011;58703;48.978;8.982;2024-03-07T10:17:16;25.00;;;14.95;;
71046;SDS011;58703;48.978;8.982;2024-03-07T10:19:42;23.77;;;12.77;;
71046;SDS011;58703;48.978;8.982;2024-03-07T10:22:07;25.90;;;12.70;;
71046;SDS011;58703;48.978;8.982;2024-03-07T10:24:33;28.17;;;14.65;;
71046;SDS011;58703;48.978;8.982;2024-03-07T10:26:59;26.30;;;15.47;;
71046;SDS011;58703;48.978;8.982;2024-03-07T10:29:26;29.55;;;15.93;;
71046;SDS011;58703;48.978;8.982;2024-03-07T10:31:51;27.75;;;15.40;;
71046;SDS011;58703;48.978;8.982;2024-03-07T10:34:17;26.98;;;14.93;;
71046;SDS011;58703;48.978;8.982;2024-03-07T10:36:43;32.47;;;15.25;;
71046;SDS011;58703;48.978;8.982;2024-03-07T10:39:11;23.20;;;13.35;;
71046;SDS011;58703;48.978;8.982;2024-03-07T10:41:47;24.85;;;13.15;;
71046;SDS011;58703;48.978;8.982;2024-03-07T10:44:36;28.08;;;15.68;;
71046;SDS011;58703;48.978;8.982;2024-03-07T10:47:06;29.27;;;17.00;;
71046;SDS011;58703;48.978;8.982;2024-03-07T10:49:34;15.18;;;9.18;;
71046;SDS011;58703;48.978;8.982;2024-03-07T10:52:10;25.73;;;13.90;;
71046;SDS011;58703;48.978;8.982;2024-03-07T10:54:43;24.80;;;14.68;;
71046;SDS011;58703;48.978;8.982;2024-03-07T10:57:20;28.67;;;16.05;;
71046;SDS011;58703;48.978;8.982;2024-03-07T10:59:57;26.83;;;15.73;;
71046;SDS011;58703;48.978;8.982;2024-03-07T11:02:48;25.95;;;12.88;;
71046;SDS011;58703;48.978;8.982;2024-03-07T11:05:18;27.95;;;13.45;;
71046;SDS011;58703;48.978;8.982;2024-03-07T11:07:44;21.88;;;12.32;;
71046;SDS011;58703;48.978;8.982;2024-03-07T11:10:10;31.47;;;14.93;;
71046;SDS011;58703;48.978;8.982;2024-03-07T11:12:38;27.25;;;15.52;;
71046;SDS011;58703;48.978;8.982;2024-03-07T11:15:07;27.95;;;14.40;;
71046;SDS011;58703;48.978;8.982;2024-03-07T11:17:43;22.70;;;12.70;;
71046;SDS011;58703;48.978;8.982;2024-03-07T11:20:25;26.35;;;15.02;;
71046;SDS011;58703;48.978;8.982;2024-03-07T11:22:51;28.13;;;14.20;;
71046;SDS011;58703;48.978;8.982;2024-03-07T11:25:21;20.05;;;12.27;;
71046;SDS011;58703;48.978;8.982;2024-03-07T11:27:57;23.08;;;14.05;;
71046;SDS011;58703;48.978;8.982;2024-03-07T11:30:24;23.40;;;13.57;;
71046;SDS011;58703;48.978;8.982;2024-03-07T11:32:54;26.15;;;12.77;;
71046;SDS011;58703;48.978;8.982;2024-03-07T11:35:20;22.97;;;13.10;;
71046;SDS011;58703;48.978;8.982;2024-03-07T11:37:56;23.75;;;14.23;;
71046;SDS011;58703;48.978;8.982;2024-03-07T11:42:53;19.27;;;10.65;;
71046;SDS011;58703;48.978;8.982;2024-03-07T11:45:20;19.92;;;11.32;;
71046;SDS011;58703;48.978;8.982;2024-03-07T11:47:58;23.60;;;12.17;;
71046;SDS011;58703;48.978;8.982;2024-03-07T11:50:29;21.38;;;12.18;;
71046;SDS011;58703;48.978;8.982;2024-03-07T11:53:00;23.23;;;13.38;;
71046;SDS011;58703;48.978;8.982;2024-03-07T11:55:26;24.30;;;14.23;;
71046;SDS011;58703;48.978;8.982;2024-03-07T11:57:58;22.85;;;13.52;;
71046;SDS011;58703;48.978;8.982;2024-03-07T12:00:24;26.67;;;14.90;;
71046;SDS011;58703;48.978;8.982;2024-03-07T12:02:53;24.45;;;14.35;;
71046;SDS011;58703;48.978;8.982;2024-03-07T12:05:19;23.27;;;14.00;;
71046;SDS011;58703;48.978;8.982;2024-03-07T12:07:45;24.30;;;14.48;;
71046;SDS011;58703;48.978;8.982;2024-03-07T12:10:10;24.23;;;14.23;;
71046;SDS011;58703;48.978;8.982;2024-03-07T12:12:36;22.58;;;14.27;;
71046;SDS011;58703;48.978;8.982;2024-03-07T12:15:06;21.83;;;13.10;;
71046;SDS011;58703;48.978;8.982;2024-03-07T12:17:40;22.20;;;11.90;;
71046;SDS011;58703;48.978;8.982;2024-03-07T12:20:07;24.52;;;13.60;;
71046;SDS011;58703;48.978;8.982;2024-03-07T12:22:50;21.95;;;11.38;;
71046;SDS011;58703;48.978;8.982;2024-03-07T12:25:22;24.73;;;14.23;;
71046;SDS011;58703;48.978;8.982;2024-03-07T12:27:59;23.35;;;14.10;;
71046;SDS011;58703;48.978;8.982;2024-03-07T12:30:34;20.63;;;12.77;;
71046;SDS011;58703;48.978;8.982;2024-03-07T12:33:03;22.38;;;12.88;;
71046;SDS011;58703;48.978;8.982;2024-03-07T12:35:30;24.45;;;14.82;;
71046;SDS011;58703;48.978;8.982;2024-03-07T12:37:57;23.02;;;13.85;;
71046;SDS011;58703;48.978;8.982;2024-03-07T12:40:24;21.52;;;13.00;;
71046;SDS011;58703;48.978;8.982;2024-03-07T12:42:52;22.77;;;13.37;;
71046;SDS011;58703;48.978;8.982;2024-03-07T12:45:21;23.15;;;14.45;;
71046;SDS011;58703;48.978;8.982;2024-03-07T12:47:47;25.97;;;16.43;;
71046;SDS011;58703;48.978;8.982;2024-03-07T12:50:16;23.85;;;13.30;;
71046;SDS011;58703;48.978;8.982;2024-03-07T12:52:46;24.23;;;13.57;;
71046;SDS011;58703;48.978;8.982;2024-03-07T12:55:15;21.10;;;12.98;;
71046;SDS011;58703;48.978;8.982;2024-03-07T12:57:44;24.05;;;15.30;;
71046;SDS011;58703;48.978;8.982;2024-03-07T13:00:10;23.83;;;13.93;;
71046;SDS011;58703;48.978;8.982;2024-03-07T13:02:45;25.67;;;15.77;;
71046;SDS011;58703;48.978;8.982;2024-03-07T13:05:11;26.63;;;15.35;;
71046;SDS011;58703;48.978;8.982;2024-03-07T13:07:51;25.70;;;15.00;;
71046;SDS011;58703;48.978;8.982;2024-03-07T13:10:17;26.98;;;14.68;;
71046;SDS011;58703;48.978;8.982;2024-03-07T13:12:46;25.77;;;14.57;;
71046;SDS011;58703;48.978;8.982;2024-03-07T13:15:14;26.85;;;16.45;;
71046;SDS011;58703;48.978;8.982;2024-03-07T13:17:40;23.85;;;13.60;;
71046;SDS011;58703;48.978;8.982;2024-03-07T13:20:11;25.00;;;14.40;;
71046;SDS011;58703;48.978;8.982;2024-03-07T13:22:41;23.92;;;14.20;;
71046;SDS011;58703;48.978;8.982;2024-03-07T13:25:15;27.80;;;15.43;;
71046;SDS011;58703;48.978;8.982;2024-03-07T13:27:56;24.00;;;13.77;;
71046;SDS011;58703;48.978;8.982;2024-03-07T13:30:49;27.58;;;14.02;;
71046;SDS011;58703;48.978;8.982;2024-03-07T13:33:15;28.17;;;15.85;;
71046;SDS011;58703;48.978;8.982;2024-03-07T13:35:42;32.58;;;16.15;;
71046;SDS011;58703;48.978;8.982;2024-03-07T13:38:07;26.77;;;14.47;;
71046;SDS011;58703;48.978;8.982;2024-03-07T13:40:33;23.25;;;13.93;;
71046;SDS011;58703;48.978;8.982;2024-03-07T13:43:05;25.30;;;15.25;;
71046;SDS011;58703;48.978;8.982;2024-03-07T13:45:33;31.80;;;17.08;;
71046;SDS011;58703;48.978;8.982;2024-03-07T13:48:07;23.90;;;13.23;;
71046;SDS011;58703;48.978;8.982;2024-03-07T13:50:35;26.67;;;15.18;;
71046;SDS011;58703;48.978;8.982;2024-03-07T13:53:03;26.90;;;14.85;;
71046;SDS011;58703;48.978;8.982;2024-03-07T13:55:41;19.10;;;11.77;;
71046;SDS011;58703;48.978;8.982;2024-03-07T13:58:41;22.67;;;13.27;;
71046;SDS011;58703;48.978;8.982;2024-03-07T14:01:17;25.67;;;14.67;;
71046;SDS011;58703;48.978;8.982;2024-03-07T14:07:30;21.83;;;13.73;;
71046;SDS011;58703;48.978;8.982;2024-03-07T14:10:22;26.45;;;14.43;;
71046;SDS011;58703;48.978;8.982;2024-03-07T14:13:22;19.40;;;13.23;;
71046;SDS011;58703;48.978;8.982;2024-03-07T14:30:44;26.20;;;16.77;;
71046;SDS011;58703;48.978;8.982;2024-03-07T14:33:18;24.88;;;14.88;;
71046;SDS011;58703;48.978;8.982;2024-03-07T14:36:05;24.13;;;13.48;;
71046;SDS011;58703;48.978;8.982;2024-03-07T14:38:52;21.73;;;12.07;;
71046;SDS011;58703;48.978;8.982;2024-03-07T14:41:24;23.17;;;12.68;;
71046;SDS011;58703;48.978;8.982;2024-03-07T14:44:08;30.83;;;14.57;;
71046;SDS011;58703;48.978;8.982;2024-03-07T14:46:35;28.02;;;14.63;;
71046;SDS011;58703;48.978;8.982;2024-03-07T14:49:02;23.48;;;13.38;;
71046;SDS011;58703;48.978;8.982;2024-03-07T14:51:28;25.17;;;15.20;;
71046;SDS011;58703;48.978;8.982;2024-03-07T14:53:53;28.03;;;15.80;;